New Ulm, Texas
Current Conditions -  °F | °C
As of 3:15 AM on Friday 19 Dec 2014 (Local Time) from K66R Reporting Station
Light Rain Light Rain  
Wind Chill: 56°   Ceiling: 400
Heat Index: 56°   Visibility: 10mi
Dew Point: 55°   Wind: 5mph
Humidity: 97%   Direction: 20°NNE
Pressure: 30"   Gusts: NA
Location:  29.89°N, 96.49°W
Report Text: K66R 190915Z AUTO 02004KT 10SM -RA BKN004 OVC014 13/13 A3000 RMK AO2 LTG DSNT SW AND NW T01340130
Loading
Personal Weather Stations






























Interactive Weather Map New forecast layout! Learn more

10-Day Weather Forecast

Advertisements
Track Severe Weather on mobile